Time;durP1;ratioP1;P1;durP2;ratioP2;P2;SDS_P1;SDS_P2;PMS_P1;PMS_P2;Temp;Humidity;BMP_temperature;BMP_pressure;BME280_temperature;BME280_humidity;BME280_pressure;Samples;Min_cycle;Max_cycle;Signal;HPM_P1;HPM_P2
2023/08/03 00:00:22;;;;;;;11.73;10.63;;;;;;;25.03;67.38;94393.22;5073636;28;21154;-78
2023/08/03 00:02:50;;;;;;;10.43;9.40;;;;;;;24.93;67.63;94383.03;5073399;28;20489;-78
2023/08/03 00:05:19;;;;;;;11.57;10.10;;;;;;;24.91;67.30;94392.38;5074142;28;20429;-79
2023/08/03 00:07:46;;;;;;;13.00;11.17;;;;;;;24.88;67.94;94396.31;5074110;28;20459;-78
2023/08/03 00:10:14;;;;;;;11.20;10.17;;;;;;;24.86;68.47;94397.56;5073856;28;20495;-78
2023/08/03 00:12:40;;;;;;;11.10;10.00;;;;;;;24.89;68.83;94403.31;5073984;28;20468;-78
2023/08/03 00:15:10;;;;;;;13.20;10.20;;;;;;;24.90;69.01;94399.59;5073657;28;20475;-78
2023/08/03 00:17:37;;;;;;;11.60;10.40;;;;;;;24.87;68.68;94392.00;5073583;28;20977;-78
2023/08/03 00:20:04;;;;;;;10.83;9.83;;;;;;;24.83;68.77;94396.16;5039002;28;20445;-78
2023/08/03 00:22:31;;;;;;;11.77;10.60;;;;;;;24.74;69.69;94394.88;5074074;28;20738;-78
2023/08/03 00:24:59;;;;;;;11.27;10.27;;;;;;;24.73;69.88;94390.56;5073946;28;20436;-78
2023/08/03 00:27:25;;;;;;;12.20;11.00;;;;;;;24.74;69.80;94394.88;5073459;28;20424;-78
2023/08/03 00:29:52;;;;;;;10.90;9.93;;;;;;;24.71;70.48;94396.16;5073934;28;20781;-78
2023/08/03 00:32:21;;;;;;;11.63;10.53;;;;;;;24.76;70.27;94397.34;5074780;28;20439;-78
2023/08/03 00:34:48;;;;;;;13.23;11.33;;;;;;;24.78;70.04;94390.69;5073711;28;20432;-79
2023/08/03 00:37:15;;;;;;;11.40;10.40;;;;;;;24.79;70.19;94392.31;5073603;28;20828;-79
2023/08/03 00:39:42;;;;;;;11.97;10.77;;;;;;;24.80;70.25;94393.13;5073428;28;20907;-78
2023/08/03 00:42:08;;;;;;;11.80;10.63;;;;;;;24.76;70.25;94387.41;5038614;28;20440;-79
2023/08/03 00:44:38;;;;;;;11.47;10.27;;;;;;;24.73;70.71;94401.28;5074353;28;20432;-78
2023/08/03 00:47:05;;;;;;;11.60;10.40;;;;;;;24.60;71.00;94396.94;5074079;28;20464;-78
2023/08/03 00:49:34;;;;;;;11.13;10.10;;;;;;;24.56;71.27;94401.09;5073226;28;20480;-78
2023/08/03 00:52:00;;;;;;;15.40;11.10;;;;;;;24.46;71.46;94400.84;5073825;28;20768;-78
2023/08/03 00:54:27;;;;;;;10.67;9.67;;;;;;;24.39;72.21;94392.09;5073062;28;20436;-78
2023/08/03 00:56:54;;;;;;;12.93;11.57;;;;;;;24.36;72.08;94398.72;5073426;28;20447;-78
2023/08/03 00:59:22;;;;;;;11.00;10.10;;;;;;;24.41;72.44;94390.00;5073344;28;20470;-78
2023/08/03 01:01:48;;;;;;;12.67;11.37;;;;;;;24.32;72.50;94394.03;5073371;28;20449;-78
2023/08/03 01:04:15;;;;;;;11.57;10.47;;;;;;;24.26;72.46;94393.03;5054952;28;20443;-78
2023/08/03 01:06:44;;;;;;;13.47;12.07;;;;;;;24.30;72.31;94393.47;5073662;28;20800;-78
2023/08/03 01:09:10;;;;;;;12.33;11.13;;;;;;;24.31;72.47;94397.78;5073061;28;20448;-78
2023/08/03 01:11:37;;;;;;;11.97;10.87;;;;;;;24.29;72.77;94391.81;5073787;28;20522;-78
2023/08/03 01:14:04;;;;;;;12.30;11.10;;;;;;;24.31;72.84;94392.41;5073734;28;20433;-78
2023/08/03 01:16:31;;;;;;;11.70;10.50;;;;;;;24.29;72.63;94397.19;5038035;28;20444;-78
2023/08/03 01:18:58;;;;;;;13.27;11.60;;;;;;;24.29;73.11;94394.50;5038425;28;20930;-78
2023/08/03 01:21:28;;;;;;;11.53;10.50;;;;;;;24.22;72.99;94385.66;5073303;28;20436;-79
2023/08/03 01:23:57;;;;;;;13.30;11.87;;;;;;;24.26;73.18;94386.84;5073069;28;20436;-78
2023/08/03 01:26:24;;;;;;;12.00;11.00;;;;;;;24.25;73.25;94399.44;5072983;28;20434;-78
2023/08/03 01:28:51;;;;;;;12.03;10.93;;;;;;;24.20;72.83;94401.97;5073850;28;20433;-78
2023/08/03 01:31:20;;;;;;;11.40;10.40;;;;;;;24.20;72.89;94395.81;5073320;28;20483;-79
2023/08/03 01:33:48;;;;;;;11.57;10.47;;;;;;;24.15;73.44;94396.50;5038347;28;20441;-78
2023/08/03 01:36:15;;;;;;;11.00;10.00;;;;;;;24.13;72.98;94398.56;5073119;28;20440;-78
2023/08/03 01:38:41;;;;;;;11.10;10.20;;;;;;;24.16;73.55;94402.66;5073381;28;20771;-79
2023/08/03 01:41:10;;;;;;;13.43;11.40;;;;;;;24.15;73.17;94396.50;5073187;28;20444;-78
2023/08/03 01:43:36;;;;;;;13.33;12.13;;;;;;;24.14;73.44;94396.72;5037811;28;20454;-78
2023/08/03 01:46:05;;;;;;;12.90;11.60;;;;;;;24.08;73.30;94401.94;5073159;28;20452;-78
2023/08/03 01:48:31;;;;;;;13.87;12.20;;;;;;;24.05;73.89;94402.38;5072976;28;20452;-78
2023/08/03 01:50:58;;;;;;;12.37;11.07;;;;;;;24.15;73.26;94406.41;5073025;28;20487;-78
2023/08/03 01:53:25;;;;;;;12.60;11.40;;;;;;;24.14;73.10;94402.06;5076584;28;20424;-79
2023/08/03 01:55:52;;;;;;;12.90;11.70;;;;;;;24.18;73.16;94411.31;5076279;28;20433;-79
2023/08/03 01:58:20;;;;;;;12.83;11.63;;;;;;;24.20;72.76;94407.34;5076452;28;20820;-79
2023/08/03 02:00:47;;;;;;;11.80;10.70;;;;;;;24.18;72.78;94404.06;5058187;28;20957;-78
2023/08/03 02:03:14;;;;;;;12.40;11.30;;;;;;;24.19;72.62;94410.25;5093255;28;20440;-79
2023/08/03 02:05:40;;;;;;;11.93;10.87;;;;;;;24.22;72.63;94402.56;5093209;28;20458;-79
2023/08/03 02:08:07;;;;;;;11.70;10.70;;;;;;;24.21;72.40;94408.16;5076263;28;20439;-78
2023/08/03 02:10:34;;;;;;;12.23;11.10;;;;;;;24.20;72.98;94406.53;5076052;28;20499;-78
2023/08/03 02:13:01;;;;;;;12.33;11.23;;;;;;;24.23;72.96;94404.22;5076235;28;20803;-78
2023/08/03 02:15:29;;;;;;;12.33;11.13;;;;;;;24.22;72.66;94407.94;5075986;28;20440;-78
2023/08/03 02:17:56;;;;;;;12.60;11.33;;;;;;;24.20;72.52;94406.53;5076459;28;20912;-78
2023/08/03 02:20:22;;;;;;;14.23;11.83;;;;;;;24.24;73.00;94411.22;5075820;28;20908;-78
2023/08/03 02:22:50;;;;;;;12.53;11.33;;;;;;;24.16;73.11;94411.53;5075867;28;20439;-78
2023/08/03 02:25:23;;;;;;;12.87;11.60;;;;;;;24.05;73.26;94401.56;5076119;28;20444;-79
2023/08/03 02:27:50;;;;;;;11.40;10.40;;;;;;;24.14;73.22;94404.75;5076020;28;20440;-78
2023/08/03 02:30:17;;;;;;;14.23;12.03;;;;;;;24.10;72.73;94402.53;5076063;28;20455;-78
2023/08/03 02:32:45;;;;;;;14.00;12.20;;;;;;;24.09;73.22;94402.75;5075535;28;20440;-78
2023/08/03 02:35:12;;;;;;;13.60;12.37;;;;;;;24.14;73.25;94410.94;5075576;28;20789;-78
2023/08/03 02:37:39;;;;;;;19.77;12.00;;;;;;;24.14;73.26;94412.81;5075871;28;20452;-78
2023/08/03 02:40:09;;;;;;;14.37;11.50;;;;;;;24.14;73.11;94410.13;5075889;28;20448;-78
2023/08/03 02:42:37;;;;;;;12.57;11.30;;;;;;;24.09;73.24;94402.75;5009084;28;20859;-78
2023/08/03 02:45:04;;;;;;;12.90;11.70;;;;;;;23.97;73.19;94410.72;5075752;28;20432;-78
2023/08/03 02:47:31;;;;;;;14.03;10.60;;;;;;;23.85;73.41;94417.88;5075393;28;20819;-78
2023/08/03 02:50:07;;;;;;;13.43;12.03;;;;;;;23.82;73.87;94406.78;5040491;28;20468;-78
2023/08/03 02:52:34;;;;;;;14.30;12.97;;;;;;;23.86;73.75;94411.47;5075491;28;20454;-78
2023/08/03 02:55:01;;;;;;;12.00;10.97;;;;;;;23.84;73.70;94413.56;5075135;28;20881;-78
2023/08/03 02:57:28;;;;;;;13.60;11.97;;;;;;;23.82;73.96;94418.31;5075835;28;20440;-78
2023/08/03 02:59:55;;;;;;;13.90;12.53;;;;;;;23.91;74.15;94419.66;5076916;28;20451;-78
2023/08/03 03:02:22;;;;;;;13.73;12.43;;;;;;;24.03;73.66;94417.88;5075120;28;20444;-78
2023/08/03 03:04:49;;;;;;;14.20;12.77;;;;;;;24.02;73.20;94413.56;5075975;28;20435;-79
2023/08/03 03:07:23;;;;;;;13.93;12.67;;;;;;;23.90;73.81;94417.19;5076056;28;20475;-78
2023/08/03 03:09:50;;;;;;;15.50;12.97;;;;;;;23.77;74.64;94420.84;5076577;28;20462;-78
2023/08/03 03:12:17;;;;;;;13.90;12.53;;;;;;;23.80;74.06;94425.78;5074755;28;20498;-78
2023/08/03 03:14:43;;;;;;;11.73;10.63;;;;;;;23.84;74.67;94432.31;5074509;28;20449;-78
2023/08/03 03:17:10;;;;;;;13.10;11.80;;;;;;;23.84;74.52;94418.91;5074605;28;20440;-79
2023/08/03 03:19:37;;;;;;;13.37;11.97;;;;;;;23.93;74.28;94425.59;5074226;28;20965;-79
2023/08/03 03:22:04;;;;;;;12.87;11.37;;;;;;;23.94;74.84;94431.78;5069593;28;20450;-80
2023/08/03 03:24:33;;;;;;;12.27;11.17;;;;;;;23.94;74.11;94434.47;5073950;28;20441;-78
2023/08/03 03:26:59;;;;;;;12.70;11.50;;;;;;;24.24;73.64;94437.22;5074451;28;20459;-76
2023/08/03 03:29:26;;;;;;;20.33;12.00;;;;;;;24.48;71.35;94440.84;5074026;28;20453;-76
2023/08/03 03:31:53;;;;;;;13.03;11.73;;;;;;;24.41;72.12;94438.28;5074616;28;20824;-77
2023/08/03 03:34:20;;;;;;;11.27;10.23;;;;;;;24.32;72.92;94448.50;5038868;28;20448;-76
2023/08/03 03:36:47;;;;;;;12.60;11.30;;;;;;;24.31;72.41;94443.38;5055717;28;20530;-76
2023/08/03 03:39:13;;;;;;;12.27;11.17;;;;;;;24.42;72.66;94450.63;5074151;28;20433;-76
2023/08/03 03:41:42;;;;;;;13.80;12.43;;;;;;;24.49;71.69;94447.84;5074255;28;20448;-76
2023/08/03 03:44:08;;;;;;;13.00;11.73;;;;;;;24.48;72.00;94444.34;5073935;28;20439;-76
2023/08/03 03:46:35;;;;;;;12.73;11.73;;;;;;;24.56;71.44;94441.34;5073870;28;20448;-76
2023/08/03 03:49:02;;;;;;;11.87;10.73;;;;;;;24.62;70.87;94440.47;5073273;28;20494;-76
2023/08/03 03:51:29;;;;;;;15.13;12.37;;;;;;;24.54;71.28;94440.75;5073722;28;20491;-76
2023/08/03 03:53:55;;;;;;;12.20;11.00;;;;;;;24.65;70.87;94452.59;5073600;28;20441;-76
2023/08/03 03:56:22;;;;;;;14.00;12.53;;;;;;;24.74;71.26;94448.56;5073644;28;20469;-76
2023/08/03 03:58:51;;;;;;;13.20;12.07;;;;;;;25.13;69.80;94449.03;5073505;28;20931;-76
2023/08/03 04:01:17;;;;;;;13.17;11.73;;;;;;;25.43;67.65;94454.31;5038057;28;20452;-76
2023/08/03 04:03:44;;;;;;;13.53;12.27;;;;;;;25.73;67.02;94456.94;5073569;28;20445;-76
2023/08/03 04:06:11;;;;;;;14.53;11.43;;;;;;;25.87;66.40;94455.66;5073923;28;20780;-76
2023/08/03 04:08:38;;;;;;;16.97;11.63;;;;;;;25.91;65.36;94456.81;5073747;28;20449;-76
2023/08/03 04:11:04;;;;;;;12.93;10.97;;;;;;;26.06;64.79;94459.03;5073496;28;20488;-76
2023/08/03 04:13:31;;;;;;;16.07;12.33;;;;;;;26.20;63.96;94455.03;5073509;28;20460;-77
2023/08/03 04:16:00;;;;;;;13.10;11.90;;;;;;;26.42;63.25;94456.06;5064590;28;20499;-76
2023/08/03 04:18:27;;;;;;;12.87;11.67;;;;;;;26.82;62.12;94449.81;5053060;28;20913;-75
2023/08/03 04:20:54;;;;;;;12.97;11.73;;;;;;;27.09;61.02;94452.75;5059868;28;20555;-76
2023/08/03 04:23:21;;;;;;;13.03;11.73;;;;;;;27.31;60.24;94450.19;5072765;28;20444;-76
2023/08/03 04:25:47;;;;;;;13.20;10.83;;;;;;;27.46;59.57;94451.22;5072505;28;20442;-76
2023/08/03 04:28:14;;;;;;;11.43;10.23;;;;;;;27.60;58.51;94461.69;5073213;28;20445;-77
2023/08/03 04:30:41;;;;;;;12.57;11.30;;;;;;;27.91;58.39;94465.69;5069345;28;20828;-77
2023/08/03 04:33:10;;;;;;;11.70;10.60;;;;;;;28.21;58.04;94470.69;5001749;28;20917;-77
2023/08/03 04:35:36;;;;;;;12.53;11.37;;;;;;;28.59;56.88;94469.84;5067811;28;20480;-76
2023/08/03 04:38:03;;;;;;;11.53;10.53;;;;;;;28.84;55.24;94475.56;5072642;28;20930;-73
2023/08/03 04:40:30;;;;;;;11.87;10.67;;;;;;;28.92;54.39;94475.16;5070674;28;20445;-74
2023/08/03 04:42:57;;;;;;;12.60;11.43;;;;;;;28.96;54.69;94478.97;5071793;28;20456;-73
2023/08/03 04:45:23;;;;;;;11.70;10.70;;;;;;;29.05;54.63;94483.91;5072268;28;20961;-72
2023/08/03 04:47:50;;;;;;;12.27;11.17;;;;;;;29.22;53.49;94480.06;5071934;28;20957;-73
2023/08/03 04:50:21;;;;;;;13.07;10.93;;;;;;;29.38;53.27;94481.00;5072466;28;20465;-73
2023/08/03 04:52:48;;;;;;;12.17;11.10;;;;;;;29.33;53.28;94480.94;5071977;28;20538;-74
2023/08/03 04:55:15;;;;;;;11.70;10.70;;;;;;;29.45;53.35;94478.09;5035821;28;20436;-74
2023/08/03 04:57:41;;;;;;;16.97;11.60;;;;;;;29.57;53.38;94478.75;5071729;28;20436;-73
2023/08/03 05:00:09;;;;;;;13.60;11.20;;;;;;;29.70;52.76;94485.63;5071818;28;20452;-73
2023/08/03 05:02:36;;;;;;;14.63;11.50;;;;;;;29.82;52.32;94483.56;5072138;28;20437;-74
2023/08/03 05:05:03;;;;;;;13.73;10.63;;;;;;;29.90;52.06;94486.59;5071730;28;20444;-74
2023/08/03 05:07:31;;;;;;;11.73;10.67;;;;;;;30.04;51.18;94481.56;5071144;28;20475;-74
2023/08/03 05:09:58;;;;;;;12.13;10.93;;;;;;;30.24;50.91;94482.75;5072064;28;20437;-73
2023/08/03 05:12:25;;;;;;;12.33;10.77;;;;;;;30.26;50.43;94478.72;5035473;28;20492;-73
2023/08/03 05:14:51;;;;;;;14.00;11.47;;;;;;;30.53;50.48;94492.13;5071556;28;20441;-74
2023/08/03 05:17:18;;;;;;;16.60;11.57;;;;;;;30.87;49.25;94479.00;5072180;28;20436;-74
2023/08/03 05:19:45;;;;;;;12.60;10.57;;;;;;;31.10;48.38;94489.38;5071112;28;20460;-73
2023/08/03 05:22:11;;;;;;;11.13;10.23;;;;;;;31.30;48.09;94485.94;5070684;28;20448;-74
2023/08/03 05:24:40;;;;;;;13.23;12.07;;;;;;;31.41;48.01;94484.03;5062007;28;20451;-75
2023/08/03 05:27:09;;;;;;;12.60;11.20;;;;;;;31.32;47.39;94485.66;5066553;28;20491;-74
2023/08/03 05:29:36;;;;;;;13.70;11.50;;;;;;;31.58;47.24;94486.50;5065346;28;20445;-73
2023/08/03 05:32:03;;;;;;;13.27;10.57;;;;;;;31.42;47.08;94489.19;5061031;28;20816;-74
2023/08/03 05:34:31;;;;;;;10.73;9.83;;;;;;;31.46;47.61;94494.06;5055494;28;20444;-73
2023/08/03 05:36:58;;;;;;;12.57;11.47;;;;;;;31.62;46.92;94498.44;5060169;28;20448;-74
2023/08/03 05:39:26;;;;;;;13.23;12.03;;;;;;;31.87;47.18;94501.19;5074896;28;20467;-73
2023/08/03 05:41:55;;;;;;;12.50;11.40;;;;;;;32.25;46.68;94504.41;5075008;28;20819;-73
2023/08/03 05:44:22;;;;;;;12.13;11.00;;;;;;;32.31;44.83;94503.31;5073990;28;20442;-75
2023/08/03 05:46:48;;;;;;;11.50;10.50;;;;;;;32.45;44.65;94498.97;5074742;28;20443;-74
2023/08/03 05:49:15;;;;;;;11.60;10.60;;;;;;;32.51;44.81;94500.56;5075100;28;20468;-74
2023/08/03 05:51:42;;;;;;;12.20;11.30;;;;;;;32.27;44.47;94496.81;5075814;28;21005;-73
2023/08/03 05:54:15;;;;;;;11.53;10.53;;;;;;;32.10;45.39;94497.09;5071932;28;20511;-74
2023/08/03 05:56:43;;;;;;;13.00;11.70;;;;;;;30.69;49.05;94493.88;5058332;28;20449;-73
2023/08/03 05:59:18;;;;;;;14.13;12.83;;;;;;;30.59;50.14;94493.78;5004041;28;20477;-71
2023/08/03 06:01:45;;;;;;;13.47;12.17;;;;;;;30.76;49.02;94494.44;5054837;28;20776;-73
2023/08/03 06:04:12;;;;;;;12.77;11.47;;;;;;;31.08;49.13;94504.28;5016151;28;20828;-73
2023/08/03 06:06:38;;;;;;;13.70;10.97;;;;;;;31.29;48.92;94503.28;5054775;28;20481;-73
2023/08/03 06:09:05;;;;;;;11.80;10.70;;;;;;;31.47;49.12;94501.13;5058049;28;20464;-73
2023/08/03 06:11:32;;;;;;;12.80;11.63;;;;;;;31.71;47.71;94510.41;5028258;28;20488;-73
2023/08/03 06:13:59;;;;;;;16.37;11.23;;;;;;;32.02;47.04;94512.03;5074247;28;20460;-73
2023/08/03 06:16:27;;;;;;;12.50;11.03;;;;;;;31.27;48.42;94507.34;5062695;28;20455;-73
2023/08/03 06:18:56;;;;;;;12.73;11.40;;;;;;;31.28;49.02;94507.09;5073655;28;20444;-74
2023/08/03 06:21:25;;;;;;;12.30;11.13;;;;;;;31.57;48.00;94509.28;5074162;28;20440;-73
2023/08/03 06:23:53;;;;;;;12.20;11.10;;;;;;;31.95;47.45;94513.41;5020090;28;20865;-73
2023/08/03 06:26:21;;;;;;;13.20;11.80;;;;;;;32.17;46.53;94513.09;5038483;28;21215;-75
2023/08/03 06:28:49;;;;;;;12.03;10.97;;;;;;;32.14;46.97;94519.09;5073747;28;20448;-74
2023/08/03 06:31:18;;;;;;;12.20;10.90;;;;;;;32.47;46.33;94518.50;5073394;28;20436;-74
2023/08/03 06:33:48;;;;;;;19.20;11.73;;;;;;;32.39;46.03;94515.56;5071928;28;20792;-74
2023/08/03 06:36:19;;;;;;;13.73;10.70;;;;;;;32.30;45.94;94515.28;5072297;28;20441;-74
2023/08/03 06:38:46;;;;;;;12.47;11.33;;;;;;;32.55;46.66;94514.41;5073326;28;20526;-74
2023/08/03 06:41:13;;;;;;;12.30;11.10;;;;;;;32.92;45.49;94509.41;5073397;28;20437;-74
2023/08/03 06:43:40;;;;;;;13.30;11.57;;;;;;;32.87;44.76;94519.50;5073739;28;20443;-74
2023/08/03 06:46:07;;;;;;;14.80;10.83;;;;;;;32.88;45.82;94521.13;5072752;28;20447;-73
2023/08/03 06:48:34;;;;;;;12.03;10.83;;;;;;;33.13;44.29;94523.72;5021523;28;20433;-74
2023/08/03 06:51:03;;;;;;;11.93;10.83;;;;;;;33.11;45.14;94516.94;5053309;28;20908;-73
2023/08/03 06:53:31;;;;;;;12.20;11.00;;;;;;;32.94;44.48;94517.28;5053427;28;20494;-74
2023/08/03 06:55:58;;;;;;;12.93;11.40;;;;;;;33.24;44.41;94514.41;5052984;28;20442;-74
2023/08/03 06:58:24;;;;;;;13.40;12.10;;;;;;;33.39;43.18;94518.16;5053530;28;20856;-74
2023/08/03 07:00:51;;;;;;;13.80;11.07;;;;;;;33.39;43.65;94518.97;5052823;28;20452;-75
2023/08/03 07:03:18;;;;;;;13.77;12.50;;;;;;;33.00;43.86;94510.75;5052117;28;20433;-73
2023/08/03 07:05:45;;;;;;;15.63;10.73;;;;;;;33.14;44.61;94513.66;5051642;28;20452;-73
2023/08/03 07:08:13;;;;;;;12.23;11.20;;;;;;;33.19;44.82;94519.88;5052943;28;20485;-74
2023/08/03 07:10:41;;;;;;;12.33;10.97;;;;;;;32.67;45.55;94520.34;5052124;28;20453;-74
2023/08/03 07:13:08;;;;;;;12.30;11.10;;;;;;;32.71;46.62;94517.91;5052004;28;20493;-75
2023/08/03 07:15:35;;;;;;;12.83;11.73;;;;;;;32.70;45.28;94510.84;5053227;28;20450;-73
2023/08/03 07:18:03;;;;;;;13.97;12.30;;;;;;;32.69;44.76;94514.66;5053109;28;20442;-73
2023/08/03 07:20:30;;;;;;;13.87;11.60;;;;;;;31.75;47.98;94506.06;5052935;28;20449;-74
2023/08/03 07:22:57;;;;;;;15.77;12.37;;;;;;;31.84;48.08;94504.44;5017403;28;20495;-73
2023/08/03 07:25:25;;;;;;;13.70;12.30;;;;;;;31.86;47.99;94502.28;5050958;28;20796;-73
2023/08/03 07:27:52;;;;;;;18.50;11.30;;;;;;;31.99;47.64;94501.72;5052893;28;20446;-73
2023/08/03 07:30:20;;;;;;;12.73;11.50;;;;;;;32.30;47.32;94512.56;5052834;28;20784;-74
2023/08/03 07:32:47;;;;;;;22.23;11.83;;;;;;;32.41;46.54;94497.06;5017463;28;20478;-74
2023/08/03 07:35:14;;;;;;;16.00;12.43;;;;;;;32.31;46.90;94503.31;5000809;28;20433;-73
2023/08/03 07:37:41;;;;;;;14.47;12.97;;;;;;;31.62;47.85;94499.25;5052348;28;20449;-74
2023/08/03 07:40:09;;;;;;;13.27;11.97;;;;;;;32.20;47.67;94497.06;5052597;28;20446;-74
2023/08/03 07:42:39;;;;;;;13.13;11.93;;;;;;;32.46;46.92;94494.34;5033892;28;20445;-74
2023/08/03 07:45:07;;;;;;;14.27;11.70;;;;;;;32.70;47.68;94495.34;5052229;28;20442;-74
2023/08/03 07:47:34;;;;;;;18.00;13.67;;;;;;;32.88;46.10;94492.03;5052129;28;20464;-74
2023/08/03 07:50:03;;;;;;;12.83;11.63;;;;;;;33.07;46.71;94491.41;5063039;28;20830;-74
2023/08/03 07:52:30;;;;;;;12.90;10.80;;;;;;;33.16;46.46;94501.41;5072247;28;20484;-73
2023/08/03 07:54:57;;;;;;;11.70;10.70;;;;;;;33.33;46.37;94489.38;5071594;28;20437;-74
2023/08/03 07:57:24;;;;;;;11.80;10.50;;;;;;;33.70;45.25;94492.38;5071513;28;20452;-74
2023/08/03 07:59:52;;;;;;;13.80;12.53;;;;;;;33.48;44.92;94494.69;5072014;28;20441;-78
2023/08/03 08:02:19;;;;;;;16.00;12.27;;;;;;;33.41;45.77;94492.31;5072700;28;20445;-77
2023/08/03 08:04:49;;;;;;;13.53;12.23;;;;;;;33.48;46.12;94483.81;5070487;28;20445;-77
2023/08/03 08:07:16;;;;;;;12.93;11.70;;;;;;;33.56;45.85;94488.69;5071527;28;20444;-78
2023/08/03 08:09:43;;;;;;;13.80;12.60;;;;;;;33.32;48.58;94485.84;5072924;28;20440;-77
2023/08/03 08:12:10;;;;;;;13.97;12.50;;;;;;;33.05;47.88;94488.97;5072761;28;20520;-77
2023/08/03 08:14:36;;;;;;;14.67;12.67;;;;;;;33.25;49.12;94485.28;5072625;28;20444;-76
2023/08/03 08:17:05;;;;;;;13.03;11.93;;;;;;;33.37;46.79;94485.81;5071093;28;20444;-77
2023/08/03 08:19:32;;;;;;;15.80;14.50;;;;;;;33.52;46.85;94479.44;5035896;28;20445;-78
2023/08/03 08:21:59;;;;;;;14.23;12.50;;;;;;;33.76;45.69;94476.81;5071847;28;20460;-78
2023/08/03 08:24:26;;;;;;;20.50;13.00;;;;;;;33.88;44.79;94481.94;5071856;28;20456;-78
2023/08/03 08:26:52;;;;;;;14.00;12.60;;;;;;;33.92;44.62;94478.34;5072153;28;20436;-76
2023/08/03 08:29:19;;;;;;;13.00;11.80;;;;;;;33.97;44.70;94474.75;5071480;28;20445;-77
2023/08/03 08:31:46;;;;;;;17.33;13.57;;;;;;;33.75;45.03;94470.53;5071988;28;20445;-77
2023/08/03 08:34:14;;;;;;;15.73;13.47;;;;;;;33.72;46.27;94468.41;5072467;28;21112;-77
2023/08/03 08:36:41;;;;;;;14.70;13.30;;;;;;;33.54;47.20;94471.78;5071118;28;20449;-77
2023/08/03 08:39:08;;;;;;;15.10;13.77;;;;;;;33.48;45.71;94464.78;5072559;28;20448;-77
2023/08/03 08:41:40;;;;;;;22.83;13.00;;;;;;;33.80;45.42;94462.34;5072308;28;20505;-77
2023/08/03 08:44:07;;;;;;;14.63;13.23;;;;;;;33.99;44.74;94458.94;5071988;28;20471;-76
2023/08/03 08:46:34;;;;;;;14.33;13.03;;;;;;;33.89;45.60;94461.78;5071830;28;20528;-76
2023/08/03 08:49:01;;;;;;;13.93;12.73;;;;;;;33.84;44.85;94468.88;5071708;28;20859;-76
2023/08/03 08:51:30;;;;;;;14.47;12.87;;;;;;;33.96;44.95;94457.59;5071071;28;20440;-77
2023/08/03 08:53:57;;;;;;;15.60;14.07;;;;;;;34.14;44.57;94456.91;5070397;28;20484;-76
2023/08/03 08:56:23;;;;;;;15.10;13.67;;;;;;;34.03;43.66;94451.81;5072113;28;20947;-77
2023/08/03 08:58:51;;;;;;;15.50;13.87;;;;;;;33.57;45.13;94460.38;5071321;28;20787;-76
2023/08/03 09:01:18;;;;;;;15.17;13.13;;;;;;;33.74;44.71;94449.88;5071362;28;20453;-76
2023/08/03 09:03:50;;;;;;;13.43;12.23;;;;;;;33.66;45.80;94447.78;5076002;28;20437;-77
2023/08/03 09:06:16;;;;;;;16.40;14.97;;;;;;;33.68;45.33;94451.00;5074608;28;20452;-77
2023/08/03 09:08:51;;;;;;;14.60;13.40;;;;;;;33.67;45.39;94451.31;5074507;28;20804;-77
2023/08/03 09:11:18;;;;;;;14.70;13.20;;;;;;;33.75;45.07;94451.50;5075509;28;20456;-77
2023/08/03 09:13:48;;;;;;;13.30;12.10;;;;;;;33.90;45.41;94447.06;5024318;28;20484;-77
2023/08/03 09:16:26;;;;;;;19.03;13.50;;;;;;;34.04;45.81;94437.91;5075829;28;20951;-77
2023/08/03 09:18:53;;;;;;;15.40;13.90;;;;;;;34.22;45.75;94446.47;5075721;28;20455;-77
2023/08/03 09:21:20;;;;;;;15.20;13.80;;;;;;;34.32;43.61;94444.44;5075377;28;20449;-77
2023/08/03 09:23:49;;;;;;;15.33;13.40;;;;;;;34.24;43.56;94442.34;5074498;28;20447;-77
2023/08/03 09:26:22;;;;;;;14.40;12.97;;;;;;;34.25;44.44;94438.53;5074982;28;20437;-77
2023/08/03 09:28:49;;;;;;;14.87;13.60;;;;;;;34.13;44.30;94435.41;5074081;28;21009;-77
2023/08/03 09:31:22;;;;;;;14.80;13.43;;;;;;;34.32;45.04;94438.97;5074738;28;20441;-76
2023/08/03 09:33:55;;;;;;;15.50;14.10;;;;;;;34.22;44.58;94430.94;5074396;28;20476;-76
2023/08/03 09:36:22;;;;;;;14.17;12.77;;;;;;;34.35;43.41;94426.72;5075117;28;20459;-76
2023/08/03 09:38:51;;;;;;;14.60;13.40;;;;;;;34.46;44.12;94423.59;5022660;28;20445;-77
2023/08/03 09:41:33;;;;;;;14.60;13.40;;;;;;;34.59;44.46;94422.06;5074190;28;20449;-77
2023/08/03 09:44:01;;;;;;;15.33;13.90;;;;;;;34.64;44.38;94415.75;5073973;28;20853;-77
2023/08/03 09:46:29;;;;;;;15.77;14.17;;;;;;;34.63;43.51;94408.66;5074053;28;20433;-77
2023/08/03 09:48:59;;;;;;;15.50;14.00;;;;;;;34.04;43.46;94407.94;5075153;28;20548;-76
2023/08/03 09:51:29;;;;;;;15.20;13.80;;;;;;;34.11;44.79;94404.88;5089133;28;20965;-76
2023/08/03 09:54:04;;;;;;;15.30;13.70;;;;;;;34.24;44.56;94409.66;5087314;28;20488;-77
2023/08/03 09:56:35;;;;;;;13.37;12.27;;;;;;;33.91;44.84;94408.66;5073555;28;20479;-77
2023/08/03 09:59:07;;;;;;;18.10;14.47;;;;;;;33.81;44.58;94404.06;5074611;28;20485;-77
2023/08/03 10:01:38;;;;;;;15.70;14.30;;;;;;;33.88;45.04;94398.34;5074182;28;20441;-77
2023/08/03 10:04:05;;;;;;;14.80;13.60;;;;;;;33.84;45.03;94398.09;5074950;28;20445;-77
2023/08/03 10:06:35;;;;;;;14.53;13.23;;;;;;;33.94;44.20;94396.38;5074876;28;20448;-77
2023/08/03 10:09:06;;;;;;;15.27;13.77;;;;;;;34.04;44.80;94393.53;5074478;28;20869;-77
2023/08/03 10:11:38;;;;;;;13.83;12.63;;;;;;;33.70;43.72;94394.38;5034736;28;20449;-77
2023/08/03 10:14:05;;;;;;;12.73;11.73;;;;;;;33.74;43.79;94387.25;5060438;28;20484;-76
2023/08/03 10:16:34;;;;;;;15.33;13.07;;;;;;;33.93;43.32;94381.13;5072538;28;20433;-77
2023/08/03 10:19:02;;;;;;;14.23;12.80;;;;;;;34.03;43.60;94378.28;5074536;28;20536;-76
2023/08/03 10:21:30;;;;;;;15.23;14.00;;;;;;;34.04;43.99;94377.19;5073687;28;20830;-77
2023/08/03 10:24:11;;;;;;;15.20;13.40;;;;;;;34.08;43.82;94370.06;5073434;28;20470;-76
2023/08/03 10:26:38;;;;;;;13.90;12.73;;;;;;;34.06;43.79;94367.63;5073005;28;20444;-76
2023/08/03 10:29:05;;;;;;;14.90;13.60;;;;;;;33.96;44.18;94367.75;5073471;28;20433;-76
2023/08/03 10:31:33;;;;;;;17.60;13.90;;;;;;;33.95;43.28;94352.50;5073515;28;20436;-76
2023/08/03 10:34:25;;;;;;;13.90;12.80;;;;;;;33.97;44.08;94354.94;5073064;28;20487;-76
2023/08/03 10:36:53;;;;;;;16.43;12.53;;;;;;;33.99;43.14;94353.56;5064748;28;20514;-77
2023/08/03 10:39:47;;;;;;;13.50;12.30;;;;;;;33.96;43.90;94353.31;5062321;28;20476;-77
2023/08/03 10:42:31;;;;;;;13.37;12.00;;;;;;;33.94;42.70;94350.09;5073139;28;20534;-77
2023/08/03 10:45:26;;;;;;;14.03;12.73;;;;;;;33.84;41.91;94349.09;4990569;28;20556;-76
2023/08/03 10:47:54;;;;;;;14.00;12.43;;;;;;;33.96;42.44;94343.25;4933640;29;20448;-77
2023/08/03 10:50:21;;;;;;;12.30;11.30;;;;;;;34.14;43.21;94341.69;4933934;29;20478;-77
2023/08/03 10:52:48;;;;;;;12.63;11.30;;;;;;;34.25;41.85;94340.44;4933892;29;20443;-77
2023/08/03 10:55:24;;;;;;;11.73;10.73;;;;;;;34.39;41.82;94338.66;4934014;29;20494;-78
2023/08/03 10:57:51;;;;;;;13.53;12.27;;;;;;;34.47;41.07;94337.22;4933993;29;20828;-78
2023/08/03 11:00:18;;;;;;;14.60;12.10;;;;;;;34.50;40.67;94336.63;4902251;29;20439;-77
2023/08/03 11:02:45;;;;;;;12.43;11.33;;;;;;;34.48;40.99;94331.47;4933834;29;20447;-78
2023/08/03 11:05:12;;;;;;;12.57;11.47;;;;;;;34.36;40.56;94328.34;4934062;29;20861;-77
2023/08/03 11:07:41;;;;;;;11.93;10.90;;;;;;;34.28;40.10;94326.25;4933603;29;20451;-77
2023/08/03 11:10:10;;;;;;;17.63;11.90;;;;;;;33.95;40.43;94322.56;4931887;29;20439;-78
2023/08/03 11:12:39;;;;;;;12.93;11.80;;;;;;;33.97;41.80;94327.72;4933043;29;20870;-77
2023/08/03 11:15:07;;;;;;;12.30;11.13;;;;;;;34.15;40.98;94326.97;4932527;29;20496;-77
2023/08/03 11:17:35;;;;;;;12.00;11.07;;;;;;;34.36;41.15;94322.91;4933100;29;20447;-77
2023/08/03 11:20:04;;;;;;;11.33;10.33;;;;;;;34.56;40.11;94318.28;4933504;29;20451;-77